Terminal Aerodrome Forecast
Issued by NWS Raleigh/Durham, NC

Home | Current Version | Previous Version | Text Only | Print | Product List | Glossary On
Versions: 1 2 3 4 5 6 7 8 9 10 11 12 13 14 15 16 17 18 19 20 21 22 23 24 25 26 27 28 29 30 31 32
000
FTUS42 KRAH 082156 AAB
TAFRDU
TAF AMD
KRDU 082156Z 0822/0918 23008KT P6SM FEW060 BKN070 OVC250
      TEMPO 0822/0901 25020G32KT 4SM -SHRA BR OVC025
     FM090500 27006KT P6SM BKN050
     FM091600 26011G18KT P6SM BKN050=

USA.gov is the U.S. government's official web portal to all federal, state and local government web resources and services.